Los Angeles, California
Traffic Map
Current Weather Conditions
Los Angeles, California
Clear
Clear
62°
Feels Like: 62°
Wind Chill: 62° Ceiling: Unl
Heat Index: 62° Visibility: 10mi
Dew Point: 48° Wind: 0mph
Humidity: 60% Direction: ° ()
Pressure: 30.06in Gusts: 0mph
Raw Report DataKCQT 072047Z AUTO 00000KT 10SM CLR 17/09 A3006 RMK AO2 SLP180 T01670089 58014
Traffic Incident Summary
Active as of:
Severity:
Category:
InformationThere was an issue retrieving the traffic information for this location. Please try a different location or try again shortly.
Advertisements
Track Severe Weather on mobile